KDVT

Phoenix Deer Valley Airport

Phoenix, Arizona, USA
METAR KDVT 210453Z AUTO 22007KT 10SM CLR 37/16 A2985 RMK AO2 SLP078 T03670161 TSNO
Observed Flight Rules
Aug-21 @ 04:53 UTC (9 hours ago) Visual Flight Rules
Wind Visibility Clouds
220° at 7 knots 10 miles
  • Clear skies
Temperatures Readings
Current 37°C / 99°F
Dewpoint 16°C / 61°F
Humidity 29%
Altimeter 29.85" Hg
Pressure 1007.8 hPa
Elevation 443
METAR KDVT 210453Z AUTO 22007KT 10SM CLR 37/16 A2985 RMK AO2 SLP078 T03670161 TSNO
Observed Flight Rules
Aug-21 @ 04:53 UTC
(9 hours ago)
VFR
Wind Visibility
220° at 7 knots 10 miles
Clouds
  • Clear skies
Temperature Dewpoint
37°C / 99°F 16°C / 61°F
Humidity Altimeter Pressure
29% 29.85" Hg 1007.8 hPa